Archiv-/Tagesdaten

--Timestamp---	Temp	Chill	HIndex	Humid	Dewpt	Wind	HiWind	WindDir	Rain	Barom	        Solar	ET	UV
--------------	----	-----	------	-----	-----	----	------	-------	----	-----	        -----	--	--
20090208 00:05	2.1	2.1	2.1	89	0.5	0	0	292	0.00	992.723	0	0.000	0
20090208 00:10	2.1	2.1	2.1	89	0.4	0	0	292	0.00	992.689	0	0.000	0
20090208 00:15	2.0	2.0	2.0	89	0.4	0	0	292	0.00	992.655	0	0.000	0
20090208 00:20	1.9	1.9	1.9	89	0.3	0	0	292	0.00	992.655	0	0.000	0
20090208 00:25	1.8	1.8	1.8	89	0.2	0	0	292	0.00	992.655	0	0.000	0
20090208 00:30	1.9	1.9	1.9	90	0.4	0	0	292	0.00	992.587	0	0.000	0
20090208 00:35	2.0	2.0	2.0	89	0.4	0	3	292	0.00	992.587	0	0.000	0
20090208 00:40	1.9	1.9	1.9	89	0.3	2	3	292	0.00	992.587	0	0.000	0
20090208 00:45	1.9	1.9	1.9	89	0.3	0	3	292	0.00	992.655	0	0.000	0
20090208 00:50	1.9	1.9	1.9	89	0.3	2	3	292	0.00	992.655	0	0.000	0
20090208 00:55	1.8	1.8	1.8	89	0.2	2	5	292	0.00	992.587	0	0.000	0
20090208 01:00	1.8	1.8	1.8	90	0.3	2	5	292	0.00	992.655	0	0.000	0
20090208 01:05	1.7	1.7	1.7	90	0.2	2	3	292	0.00	992.756	0	0.000	0
20090208 01:10	1.6	1.6	1.6	90	0.2	3	5	292	0.00	992.790	0	0.000	0
20090208 01:15	1.6	1.6	1.6	90	0.1	2	5	292	0.00	992.790	0	0.000	0
20090208 01:20	1.6	1.6	1.6	91	0.2	2	5	292	0.00	992.723	0	0.000	0
20090208 01:25	1.6	1.6	1.6	91	0.3	2	5	292	0.00	992.824	0	0.000	0
20090208 01:30	1.7	1.7	1.7	91	0.4	3	5	292	0.00	992.824	0	0.000	0
20090208 01:35	1.6	1.6	1.6	91	0.3	3	5	292	0.00	992.858	0	0.000	0
20090208 01:40	1.6	1.6	1.6	91	0.3	3	5	292	0.00	992.926	0	0.000	0
20090208 01:45	1.6	1.6	1.6	91	0.3	3	6	292	0.00	992.892	0	0.000	0
20090208 01:50	1.7	1.7	1.7	91	0.4	2	6	292	0.00	992.960	0	0.000	0
20090208 01:55	1.7	1.7	1.7	91	0.4	3	8	247	0.00	993.027	0	0.000	0
20090208 02:00	1.7	1.7	1.7	91	0.4	3	6	270	0.00	993.027	0	0.000	0
20090208 02:05	1.7	1.7	1.7	91	0.4	3	6	292	0.00	993.129	0	0.000	0
20090208 02:10	1.8	1.8	1.8	91	0.5	5	8	292	0.00	993.163	0	0.000	0
20090208 02:15	1.8	-0.1	1.8	91	0.5	6	11	292	0.00	993.231	0	0.000	0
20090208 02:20	1.9	1.9	1.9	91	0.6	5	11	292	0.00	993.264	0	0.000	0
20090208 02:25	1.8	-0.1	1.8	91	0.5	6	11	315	0.00	993.197	0	0.000	0
20090208 02:30	1.8	-0.6	1.8	91	0.5	8	16	315	0.00	993.095	0	0.000	0
20090208 02:35	1.8	-0.1	1.8	91	0.5	6	11	292	0.00	993.027	0	0.000	0
20090208 02:40	1.7	-0.2	1.7	91	0.4	6	13	315	0.00	993.095	0	0.000	0
20090208 02:45	1.7	-0.2	1.7	91	0.4	6	11	292	0.00	993.061	0	0.000	0
20090208 02:50	1.7	1.7	1.7	91	0.4	5	10	292	0.00	993.095	0	0.000	0
20090208 02:55	1.8	1.8	1.8	91	0.5	5	8	292	0.00	993.163	0	0.000	0
20090208 03:00	1.7	-0.2	1.7	91	0.4	6	14	292	0.00	993.197	0	0.000	0
20090208 03:05	1.8	1.8	1.8	92	0.6	5	10	292	0.00	993.129	0	0.000	0
20090208 03:10	1.8	1.8	1.8	92	0.6	5	8	270	0.00	993.163	0	0.000	0
20090208 03:15	1.7	-0.2	1.7	92	0.6	6	11	292	0.00	993.298	0	0.000	0
20090208 03:20	1.7	-0.7	1.7	92	0.6	8	11	315	0.00	993.400	0	0.000	0
20090208 03:25	1.7	-0.3	1.7	92	0.5	6	10	315	0.00	993.535	0	0.000	0
20090208 03:30	1.7	1.7	1.7	92	0.5	5	10	315	0.00	993.603	0	0.000	0
20090208 03:35	1.6	1.6	1.6	92	0.5	5	13	292	0.00	993.603	0	0.000	0
20090208 03:40	1.6	1.6	1.6	92	0.5	3	10	315	0.00	993.739	0	0.000	0
20090208 03:45	1.6	1.6	1.6	92	0.5	2	5	315	0.00	993.705	0	0.000	0
20090208 03:50	1.6	1.6	1.6	92	0.5	5	8	315	0.00	993.840	0	0.000	0
20090208 03:55	1.6	1.6	1.6	92	0.4	5	8	315	0.00	993.908	0	0.000	0
20090208 04:00	1.6	1.6	1.6	92	0.4	3	6	315	0.00	993.874	0	0.000	0
20090208 04:05	1.6	1.6	1.6	92	0.4	3	5	315	0.00	994.077	0	0.000	0
20090208 04:10	1.6	1.6	1.6	92	0.4	3	6	315	0.00	994.111	0	0.000	0
20090208 04:15	1.5	-0.4	1.5	92	0.3	6	8	315	0.00	994.077	0	0.000	0
20090208 04:20	1.4	1.4	1.4	92	0.3	5	8	292	0.00	994.077	0	0.000	0
20090208 04:25	1.4	-0.5	1.4	92	0.3	6	11	315	0.00	994.077	0	0.000	0
20090208 04:30	1.3	-1.2	1.3	92	0.2	8	16	315	0.00	994.043	0	0.000	0
20090208 04:35	1.3	1.3	1.3	92	0.2	5	11	292	0.00	994.213	0	0.000	0
20090208 04:40	1.3	1.3	1.3	92	0.2	5	8	292	0.00	994.280	0	0.000	0
20090208 04:45	1.3	1.3	1.3	93	0.3	3	8	292	0.00	994.382	0	0.000	0
20090208 04:50	1.3	1.3	1.3	93	0.3	5	11	292	0.00	994.484	0	0.000	0
20090208 04:55	1.3	1.3	1.3	93	0.3	3	10	292	0.00	994.484	0	0.000	0
20090208 05:00	1.3	-0.6	1.3	93	0.3	6	10	315	0.00	994.517	0	0.000	0
20090208 05:05	1.3	1.3	1.3	93	0.3	5	11	315	0.00	994.551	0	0.000	0
20090208 05:10	1.3	1.3	1.3	93	0.3	5	10	270	0.00	994.721	0	0.000	0
20090208 05:15	1.3	-0.6	1.3	93	0.3	6	11	292	0.00	994.822	0	0.000	0
20090208 05:20	1.3	-0.6	1.3	93	0.3	6	11	292	0.00	994.822	0	0.000	0
20090208 05:25	1.3	-0.6	1.3	93	0.3	6	14	292	0.00	994.890	0	0.000	0
20090208 05:30	1.3	-0.6	1.3	93	0.3	6	14	292	0.00	994.992	0	0.000	0
20090208 05:35	1.3	-1.2	1.3	93	0.3	8	13	315	0.00	994.992	0	0.000	0
20090208 05:40	1.2	-1.3	1.2	93	0.2	8	16	292	0.00	995.025	0	0.000	0
20090208 05:45	1.2	1.2	1.2	93	0.2	5	11	270	0.00	995.127	0	0.000	0
20090208 05:50	1.1	-1.9	1.1	93	0.1	10	18	315	0.00	995.229	0	0.000	0
20090208 05:55	1.1	-1.9	1.1	93	0.1	10	18	315	0.00	995.229	0	0.000	0
20090208 06:00	1.1	-1.5	1.1	93	0.1	8	18	315	0.00	995.262	0	0.000	0
20090208 06:05	1.1	-1.9	1.1	94	0.2	10	18	315	0.00	995.229	0	0.000	0
20090208 06:10	1.1	-1.9	1.1	94	0.2	10	19	315	0.00	995.296	0	0.000	0
20090208 06:15	1.1	-1.5	1.1	94	0.2	8	16	315	0.00	995.364	0	0.000	0
20090208 06:20	1.0	-1.0	1.0	94	0.1	6	11	315	0.00	995.432	0	0.000	0
20090208 06:25	1.0	-2.0	1.0	94	0.1	10	16	315	0.00	995.533	0	0.000	0
20090208 06:30	0.9	-1.6	0.9	94	0.1	8	13	292	0.00	995.601	0	0.000	0
20090208 06:35	0.9	-1.1	0.9	94	0.1	6	18	315	0.20	995.737	0	0.000	0
20090208 06:40	0.9	0.9	0.9	94	0.0	5	10	292	0.00	995.872	0	0.000	0
20090208 06:45	0.9	0.9	0.9	94	0.0	5	11	292	0.00	995.906	0	0.000	0
20090208 06:50	0.8	0.8	0.8	94	-0.0	5	8	292	0.00	995.974	0	0.000	0
20090208 06:55	0.8	-1.3	0.8	94	-0.1	6	11	270	0.00	996.075	0	0.000	0
20090208 07:00	0.8	-1.3	0.8	94	-0.1	6	11	292	0.00	996.245	0	0.000	0
20090208 07:05	0.8	-1.3	0.8	94	-0.1	6	13	315	0.00	996.245	0	0.000	0
20090208 07:10	0.7	-1.3	0.7	94	-0.1	6	10	270	0.00	996.346	0	0.000	0
20090208 07:15	0.7	0.7	0.7	94	-0.1	5	10	270	0.00	996.380	0	0.000	0
20090208 07:20	0.7	0.7	0.7	94	-0.2	5	10	270	0.00	996.515	0	0.000	0
20090208 07:25	0.7	0.7	0.7	94	-0.2	5	10	270	0.00	996.685	0	0.000	0
20090208 07:30	0.7	0.7	0.7	94	-0.2	5	10	270	0.00	996.786	0	0.000	0
20090208 07:35	0.7	-1.4	0.7	94	-0.2	6	11	292	0.00	996.854	0	0.000	0
20090208 07:40	0.7	0.7	0.7	94	-0.2	5	10	292	0.00	996.990	0	0.000	0
20090208 07:45	0.7	-1.3	0.7	94	-0.1	6	16	270	0.00	997.057	0	0.000	0
20090208 07:50	0.7	-1.3	0.7	94	-0.1	6	11	292	0.00	997.260	0	0.000	0
20090208 07:55	0.7	-1.4	0.7	94	-0.2	6	11	315	0.00	997.328	0	0.000	0
20090208 08:00	0.7	-1.4	0.7	94	-0.2	6	11	270	0.00	997.430	0	0.000	0
20090208 08:05	0.6	0.6	0.6	94	-0.2	5	10	292	0.20	997.497	0	0.000	0
20090208 08:10	0.6	-2.0	0.6	94	-0.2	8	16	270	0.00	997.565	0	0.000	0
20090208 08:15	0.6	-1.5	0.6	94	-0.2	6	14	292	0.00	997.599	0	0.000	0
20090208 08:20	0.6	0.6	0.6	94	-0.3	5	10	270	0.20	997.734	4	0.000	0
20090208 08:25	0.6	-1.5	0.6	94	-0.3	6	14	270	0.00	997.802	6	0.000	0
20090208 08:30	0.4	-1.7	0.4	94	-0.4	6	11	270	0.00	997.904	9	0.000	0
20090208 08:35	0.4	-2.2	0.4	94	-0.4	8	14	292	0.00	998.005	11	0.000	0
20090208 08:40	0.3	-1.8	0.3	94	-0.5	6	14	270	0.20	998.107	10	0.000	0
20090208 08:45	0.3	0.3	0.3	94	-0.5	3	6	270	0.00	998.209	8	0.000	0
20090208 08:50	0.2	0.2	0.2	94	-0.6	5	8	292	0.20	998.344	10	0.000	0
20090208 08:55	0.2	0.2	0.2	94	-0.7	3	8	270	0.00	998.513	11	0.000	0
20090208 09:00	0.2	0.2	0.2	94	-0.7	3	6	270	0.00	998.547	11	0.000	0
20090208 09:05	0.1	0.1	0.1	94	-0.7	5	6	292	0.20	998.818	12	0.000	0
20090208 09:10	0.1	0.1	0.1	94	-0.8	5	8	292	0.20	998.920	14	0.000	0
20090208 09:15	0.0	0.0	0.0	100	-0.0	5	8	270	0.00	999.055	15	0.000	0
20090208 09:20	0.0	0.0	0.0	94	-0.8	3	6	292	0.20	999.123	17	0.000	0
20090208 09:25	0.0	0.0	0.0	94	-0.8	3	5	270	0.00	999.224	16	0.000	0
20090208 09:30	-0.1	-0.1	-0.1	94	-0.9	3	5	270	0.20	999.326	16	0.000	0
20090208 09:35	-0.1	-0.1	-0.1	94	-0.9	3	6	270	0.00	999.394	17	0.000	0
20090208 09:40	0.0	0.0	0.0	94	-0.8	2	5	270	0.20	999.462	20	0.000	0
20090208 09:45	0.0	0.0	0.0	94	-0.8	2	5	270	0.00	999.529	23	0.000	0
20090208 09:50	0.0	0.0	0.0	94	-0.8	5	8	270	0.20	999.699	19	0.000	0
20090208 09:55	0.0	0.0	0.0	94	-0.8	5	8	292	0.00	999.868	21	0.000	0
20090208 10:00	0.1	-2.7	0.1	94	-0.8	8	14	292	0.20	999.902	22	0.000	0
20090208 10:05	0.1	-3.1	0.1	94	-0.7	10	19	270	0.00	1000.003	25	0.000	0
20090208 10:10	0.1	-2.1	0.1	94	-0.7	6	11	270	0.00	1000.071	29	0.000	0
20090208 10:15	0.1	-2.6	0.1	94	-0.7	8	16	292	0.20	1000.207	28	0.000	0
20090208 10:20	0.1	-3.8	0.1	94	-0.7	13	24	315	0.00	1000.308	31	0.000	0
20090208 10:25	0.1	-4.2	0.1	94	-0.7	14	26	292	0.00	1000.444	41	0.000	0
20090208 10:30	0.1	-3.8	0.1	94	-0.7	13	29	315	0.00	1000.511	44	0.000	0
20090208 10:35	0.1	-3.5	0.1	94	-0.7	11	23	315	0.20	1000.647	39	0.000	0
20090208 10:40	0.1	-2.6	0.1	94	-0.7	8	16	270	0.00	1000.681	43	0.000	0
20090208 10:45	0.2	-3.0	0.2	94	-0.7	10	21	270	0.00	1000.816	53	0.000	0
20090208 10:50	0.2	-3.0	0.2	94	-0.7	10	18	292	0.00	1000.850	59	0.000	0
20090208 10:55	0.2	-2.5	0.2	94	-0.7	8	16	292	0.00	1000.985	53	0.000	0
20090208 11:00	0.2	-1.9	0.2	94	-0.6	6	11	292	0.20	1001.053	66	0.020	0
20090208 11:05	0.2	-1.9	0.2	94	-0.6	6	11	292	0.00	1001.053	74	0.000	0
20090208 11:10	0.2	-2.5	0.2	94	-0.6	8	16	292	0.00	1001.087	68	0.000	0
20090208 11:15	0.2	-1.9	0.2	94	-0.6	6	11	315	0.00	1001.189	72	0.000	0
20090208 11:20	0.2	-2.5	0.2	94	-0.6	8	18	292	0.00	1001.256	64	0.000	0
20090208 11:25	0.3	-2.4	0.3	94	-0.6	8	16	292	0.00	1001.155	67	0.000	0
20090208 11:30	0.2	-2.9	0.2	94	-0.6	10	23	270	0.00	1001.290	66	0.000	0
20090208 11:35	0.2	-2.9	0.2	94	-0.6	10	19	270	0.00	1001.392	71	0.000	0
20090208 11:40	0.3	-3.3	0.3	94	-0.6	11	24	270	0.00	1001.527	78	0.000	0
20090208 11:45	0.3	-2.9	0.3	94	-0.6	10	24	292	0.00	1001.527	77	0.000	0
20090208 11:50	0.2	-3.7	0.2	94	-0.6	13	23	292	0.00	1001.493	80	0.000	0
20090208 11:55	0.2	-2.5	0.2	94	-0.6	8	19	292	0.00	1001.527	79	0.000	0
20090208 12:00	0.2	-2.5	0.2	94	-0.6	8	14	270	0.00	1001.561	80	0.020	0
20090208 12:05	0.2	-4.0	0.2	93	-0.8	14	27	315	0.00	1001.798	78	0.000	0
20090208 12:10	0.2	-3.4	0.2	94	-0.7	11	21	315	0.20	1001.832	72	0.000	0
20090208 12:15	0.2	-2.5	0.2	93	-0.8	8	14	292	0.00	1001.832	77	0.000	0
20090208 12:20	0.2	-3.3	0.2	93	-0.8	11	21	270	0.00	1001.934	108	0.000	1
20090208 12:25	0.3	-3.6	0.3	94	-0.6	13	23	270	0.00	1001.764	114	0.000	1
20090208 12:30	0.3	-3.3	0.3	93	-0.7	11	23	292	0.00	1001.866	103	0.000	0
20090208 12:35	0.3	-2.9	0.3	93	-0.7	10	26	292	0.00	1001.934	96	0.000	0
20090208 12:40	0.3	-2.9	0.3	93	-0.7	10	21	292	0.00	1002.001	69	0.000	0
20090208 12:45	0.2	-3.3	0.2	93	-0.8	11	19	270	0.00	1002.171	75	0.000	0
20090208 12:50	0.2	-4.4	0.2	93	-0.8	16	27	270	0.00	1002.272	77	0.000	0
20090208 12:55	0.2	-3.4	0.2	93	-0.8	11	24	270	0.00	1002.374	65	0.000	0
20090208 13:00	0.1	-4.2	0.1	93	-0.9	14	26	270	0.00	1002.374	71	0.020	0
20090208 13:05	0.1	-4.2	0.1	93	-0.9	14	27	270	0.00	1002.442	85	0.000	0
20090208 13:10	0.0	-4.0	0.0	93	-1.0	13	24	270	0.00	1002.543	82	0.000	0
20090208 13:15	-0.1	-4.7	-0.1	93	-1.0	16	26	292	0.00	1002.611	96	0.000	0
20090208 13:20	-0.1	-4.7	-0.1	93	-1.0	16	24	270	0.00	1002.746	80	0.000	0
20090208 13:25	-0.1	-4.4	-0.1	92	-1.3	14	29	270	0.00	1002.780	65	0.000	0
20090208 13:30	-0.1	-4.1	-0.1	92	-1.3	13	26	292	0.00	1002.916	62	0.000	0
20090208 13:35	-0.2	-4.8	-0.2	92	-1.3	16	29	292	0.00	1003.017	70	0.000	0
20090208 13:40	-0.2	-4.2	-0.2	92	-1.3	13	24	270	0.00	1003.017	81	0.000	0
20090208 13:45	-0.2	-3.8	-0.2	91	-1.5	11	23	270	0.00	1003.017	69	0.000	0
20090208 13:50	-0.2	-4.2	-0.2	91	-1.5	13	26	292	0.00	1003.119	59	0.000	0
20090208 13:55	-0.2	-3.8	-0.2	91	-1.5	11	23	270	0.00	1003.017	60	0.000	0
20090208 14:00	-0.2	-2.9	-0.2	91	-1.5	8	18	292	0.00	1003.085	47	0.020	0
20090208 14:05	-0.1	-3.3	-0.1	91	-1.4	10	23	270	0.00	1003.187	60	0.000	0
20090208 14:10	-0.1	-3.3	-0.1	91	-1.3	10	19	270	0.00	1003.153	70	0.000	0
20090208 14:15	-0.1	-3.3	-0.1	91	-1.3	10	23	270	0.00	1003.254	71	0.000	0
20090208 14:20	-0.1	-3.7	-0.1	91	-1.3	11	23	292	0.00	1003.254	61	0.000	0
20090208 14:25	-0.1	-3.3	-0.1	90	-1.5	10	21	270	0.00	1003.322	61	0.000	0
20090208 14:30	-0.1	-3.3	-0.1	90	-1.5	10	19	270	0.00	1003.458	48	0.000	0
20090208 14:35	-0.1	-3.3	-0.1	89	-1.7	10	23	270	0.00	1003.593	45	0.000	0
20090208 14:40	-0.2	-3.8	-0.2	89	-1.8	11	21	292	0.00	1003.695	36	0.000	0
20090208 14:45	-0.2	-4.2	-0.2	89	-1.8	13	24	270	0.00	1003.864	33	0.000	0
20090208 14:50	-0.3	-3.9	-0.3	89	-1.9	11	19	270	0.00	1003.999	32	0.000	0
20090208 14:55	-0.3	-4.4	-0.3	88	-2.1	13	21	247	0.00	1004.067	29	0.000	0
20090208 15:00	-0.4	-4.1	-0.4	88	-2.1	11	21	270	0.00	1004.236	32	0.020	0
20090208 15:05	-0.4	-4.8	-0.4	87	-2.3	14	24	270	0.00	1004.338	40	0.000	0
20090208 15:10	-0.4	-3.7	-0.4	87	-2.3	10	18	270	0.00	1004.372	47	0.000	0
20090208 15:15	-0.3	-3.1	-0.3	87	-2.2	8	16	292	0.00	1004.440	59	0.000	0
20090208 15:20	-0.3	-4.4	-0.3	86	-2.4	13	21	270	0.00	1004.473	87	0.000	0
20090208 15:25	-0.3	-3.9	-0.3	86	-2.3	11	19	292	0.00	1004.575	95	0.000	0
20090208 15:30	-0.2	-3.9	-0.2	85	-2.4	11	24	270	0.00	1004.677	93	0.000	0
20090208 15:35	-0.2	-4.2	-0.2	85	-2.4	13	24	270	0.00	1004.778	86	0.000	0
20090208 15:40	-0.3	-4.6	-0.3	84	-2.6	14	26	292	0.00	1004.880	87	0.000	0
20090208 15:45	-0.2	-3.9	-0.2	83	-2.8	11	23	270	0.00	1004.846	111	0.000	0
20090208 15:50	-0.3	-3.9	-0.3	83	-2.8	11	23	292	0.00	1004.846	98	0.000	0
20090208 15:55	-0.3	-4.3	-0.3	83	-2.8	13	19	270	0.00	1004.981	68	0.000	0
20090208 16:00	-0.3	-3.9	-0.3	83	-2.8	11	18	270	0.00	1005.151	47	0.020	0
20090208 16:05	-0.3	-3.1	-0.3	83	-2.9	8	18	270	0.00	1005.354	44	0.000	0
20090208 16:10	-0.3	-3.6	-0.3	83	-2.9	10	23	270	0.00	1005.388	42	0.000	0
20090208 16:15	-0.4	-5.4	-0.4	82	-3.1	18	27	315	0.00	1005.591	33	0.000	0
20090208 16:20	-0.5	-4.6	-0.5	82	-3.2	13	23	292	0.00	1005.659	30	0.000	0
20090208 16:25	-0.6	-5.0	-0.6	81	-3.4	14	26	270	0.00	1005.693	34	0.000	0
20090208 16:30	-0.6	-4.7	-0.6	81	-3.4	13	23	270	0.00	1005.693	29	0.000	0
20090208 16:35	-0.6	-4.3	-0.6	82	-3.2	11	21	292	0.00	1005.862	24	0.000	0
20090208 16:40	-0.6	-4.3	-0.6	81	-3.4	11	26	270	0.00	1005.930	26	0.000	0
20090208 16:45	-0.7	-5.1	-0.7	80	-3.7	14	27	292	0.00	1005.997	26	0.000	0
20090208 16:50	-0.7	-5.1	-0.7	79	-3.8	14	24	315	0.00	1006.031	20	0.000	0
20090208 16:55	-0.7	-4.1	-0.7	80	-3.7	10	23	292	0.00	1006.302	15	0.000	0
20090208 17:00	-0.7	-4.1	-0.7	80	-3.7	10	18	292	0.00	1006.336	13	0.020	0
20090208 17:05	-0.8	-4.9	-0.8	79	-4.0	13	31	270	0.00	1006.404	10	0.000	0
20090208 17:10	-0.8	-4.6	-0.8	78	-4.1	11	24	270	0.00	1006.438	8	0.000	0
20090208 17:15	-0.8	-5.3	-0.8	78	-4.1	14	26	292	0.00	1006.607	6	0.000	0
20090208 17:20	-0.8	-4.6	-0.8	77	-4.4	11	23	270	0.00	1006.607	5	0.000	0
20090208 17:25	-0.8	-4.6	-0.8	78	-4.2	11	23	315	0.00	1006.641	4	0.000	0
20090208 17:30	-0.8	-3.7	-0.8	79	-4.0	8	19	315	0.00	1006.708	0	0.000	0
20090208 17:35	-0.8	-4.6	-0.8	78	-4.2	11	23	292	0.00	1006.708	0	0.000	0
20090208 17:40	-0.8	-4.2	-0.8	79	-4.0	10	19	315	0.00	1006.810	0	0.000	0
20090208 17:45	-0.8	-3.1	-0.8	79	-4.0	6	16	292	0.00	1006.912	0	0.000	0
20090208 17:50	-0.8	-0.8	-0.8	79	-4.0	5	10	270	0.00	1007.013	0	0.000	0
20090208 17:55	-0.8	-3.1	-0.8	79	-4.0	6	14	292	0.00	1007.115	0	0.000	0
20090208 18:00	-0.8	-3.1	-0.8	79	-4.0	6	13	292	0.00	1007.047	0	0.020	0
20090208 18:05	-0.8	-3.1	-0.8	79	-4.0	6	11	292	0.00	1007.115	0	0.000	0
20090208 18:10	-0.8	-0.8	-0.8	80	-3.8	5	10	270	0.00	1007.149	0	0.000	0
20090208 18:15	-0.8	-0.8	-0.8	80	-3.8	3	10	270	0.00	1007.115	0	0.000	0
20090208 18:20	-0.8	-0.8	-0.8	80	-3.8	3	10	270	0.00	1007.250	0	0.000	0
20090208 18:25	-0.8	-0.8	-0.8	79	-4.0	5	8	270	0.00	1007.284	0	0.000	0
20090208 18:30	-0.8	-0.8	-0.8	80	-3.8	3	6	270	0.00	1007.420	0	0.000	0
20090208 18:35	-0.8	-0.8	-0.8	80	-3.8	5	10	270	0.00	1007.521	0	0.000	0
20090208 18:40	-0.8	-3.1	-0.8	80	-3.8	6	10	292	0.00	1007.589	0	0.000	0
20090208 18:45	-0.8	-0.8	-0.8	80	-3.8	5	8	247	0.00	1007.623	0	0.000	0
20090208 18:50	-0.8	-0.8	-0.8	81	-3.7	3	6	292	0.00	1007.623	0	0.000	0
20090208 18:55	-0.8	-0.8	-0.8	81	-3.7	3	6	292	0.00	1007.657	0	0.000	0
20090208 19:00	-0.8	-0.8	-0.8	81	-3.6	3	6	292	0.00	1007.792	0	0.020	0
20090208 19:05	-0.8	-3.1	-0.8	81	-3.6	6	14	270	0.00	1007.724	0	0.000	0
20090208 19:10	-0.8	-3.6	-0.8	81	-3.6	8	16	270	0.00	1007.792	0	0.000	0
20090208 19:15	-0.8	-4.1	-0.8	80	-3.8	10	18	270	0.00	1007.894	0	0.000	0
20090208 19:20	-0.8	-3.1	-0.8	80	-3.8	6	11	292	0.00	1007.928	0	0.000	0
20090208 19:25	-0.8	-3.1	-0.8	78	-4.1	6	18	270	0.00	1007.894	0	0.000	0
20090208 19:30	-0.8	-3.7	-0.8	77	-4.4	8	16	292	0.00	1007.928	0	0.000	0
20090208 19:35	-0.8	-4.2	-0.8	76	-4.5	10	21	270	0.00	1007.995	0	0.000	0
20090208 19:40	-0.9	-3.8	-0.9	76	-4.6	8	16	292	0.00	1008.029	0	0.000	0
20090208 19:45	-0.9	-0.9	-0.9	76	-4.6	5	10	270	0.00	1008.266	0	0.000	0
20090208 19:50	-0.9	-0.9	-0.9	78	-4.2	5	8	292	0.00	1008.300	0	0.000	0
20090208 19:55	-0.9	-0.9	-0.9	77	-4.4	5	11	247	0.00	1008.266	0	0.000	0
20090208 20:00	-0.9	-3.3	-0.9	77	-4.5	6	10	270	0.00	1008.435	0	0.020	0
20090208 20:05	-0.9	-3.3	-0.9	76	-4.6	6	13	292	0.00	1008.503	0	0.000	0
20090208 20:10	-0.9	-3.2	-0.9	76	-4.6	6	11	292	0.00	1008.537	0	0.000	0
20090208 20:15	-0.9	-3.2	-0.9	76	-4.6	6	10	270	0.00	1008.605	0	0.000	0
20090208 20:20	-0.9	-3.2	-0.9	76	-4.6	6	14	270	0.00	1008.740	0	0.000	0
20090208 20:25	-0.9	-3.2	-0.9	75	-4.8	6	14	270	0.00	1008.808	0	0.000	0
20090208 20:30	-0.9	-3.8	-0.9	75	-4.8	8	18	292	0.00	1008.876	0	0.000	0
20090208 20:35	-0.9	-3.8	-0.9	75	-4.8	8	18	292	0.00	1008.910	0	0.000	0
20090208 20:40	-0.9	-3.2	-0.9	76	-4.6	6	10	292	0.00	1009.011	0	0.000	0
20090208 20:45	-0.9	-3.2	-0.9	76	-4.6	6	11	270	0.00	1009.045	0	0.000	0
20090208 20:50	-0.8	-3.1	-0.8	77	-4.4	6	11	292	0.00	1009.011	0	0.000	0
20090208 20:55	-0.8	-3.1	-0.8	77	-4.4	6	10	292	0.00	1009.045	0	0.000	0
20090208 21:00	-0.8	-3.1	-0.8	76	-4.5	6	14	270	0.00	1009.079	0	0.020	0
20090208 21:05	-0.8	-0.8	-0.8	78	-4.2	5	11	292	0.00	1009.147	0	0.000	0
20090208 21:10	-0.9	-0.9	-0.9	78	-4.2	5	8	247	0.00	1009.181	0	0.000	0
20090208 21:15	-0.9	-0.9	-0.9	80	-3.9	5	10	270	0.00	1009.214	0	0.000	0
20090208 21:20	-0.9	-0.9	-0.9	80	-4.0	5	10	270	0.00	1009.282	0	0.000	0
20090208 21:25	-0.9	-0.9	-0.9	80	-4.0	5	10	292	0.00	1009.316	0	0.000	0
20090208 21:30	-0.9	-0.9	-0.9	80	-4.0	5	8	270	0.00	1009.418	0	0.000	0
20090208 21:35	-0.9	-3.8	-0.9	79	-4.1	8	16	270	0.00	1009.553	0	0.000	0
20090208 21:40	-0.9	-0.9	-0.9	80	-4.0	5	11	292	0.00	1009.621	0	0.000	0
20090208 21:45	-0.9	-0.9	-0.9	81	-3.8	5	10	292	0.00	1009.655	0	0.000	0
20090208 21:50	-0.9	-3.3	-0.9	79	-4.1	6	11	270	0.00	1009.824	0	0.000	0
20090208 21:55	-0.9	-3.3	-0.9	78	-4.3	6	11	270	0.00	1009.824	0	0.000	0
20090208 22:00	-1.0	-3.3	-1.0	75	-4.9	6	10	270	0.00	1009.959	0	0.020	0
20090208 22:05	-0.9	-3.3	-0.9	74	-5.0	6	18	270	0.00	1010.095	0	0.000	0
20090208 22:10	-1.0	-3.3	-1.0	73	-5.2	6	16	270	0.00	1010.095	0	0.000	0
20090208 22:15	-0.9	-3.3	-0.9	75	-4.8	6	10	270	0.00	1010.230	0	0.000	0
20090208 22:20	-1.0	-3.3	-1.0	75	-4.9	6	11	270	0.00	1010.264	0	0.000	0
20090208 22:25	-1.0	-4.4	-1.0	75	-4.9	10	16	270	0.00	1010.298	0	0.000	0
20090208 22:30	-1.0	-1.0	-1.0	75	-4.9	5	11	292	0.00	1010.366	0	0.000	0
20090208 22:35	-1.0	-3.3	-1.0	75	-4.9	6	14	292	0.00	1010.400	0	0.000	0
20090208 22:40	-1.0	-3.3	-1.0	75	-4.9	6	11	270	0.00	1010.366	0	0.000	0
20090208 22:45	-1.0	-1.0	-1.0	76	-4.7	5	10	270	0.00	1010.433	0	0.000	0
20090208 22:50	-1.0	-1.0	-1.0	76	-4.7	5	10	270	0.00	1010.467	0	0.000	0
20090208 22:55	-1.1	-1.1	-1.1	75	-4.9	5	8	270	0.00	1010.535	0	0.000	0
20090208 23:00	-1.1	-1.1	-1.1	76	-4.7	3	6	225	0.00	1010.535	0	0.020	0
20090208 23:05	-1.1	-1.1	-1.1	75	-4.9	5	10	270	0.00	1010.603	0	0.000	0
20090208 23:10	-1.1	-1.1	-1.1	74	-5.1	5	10	270	0.00	1010.671	0	0.000	0
20090208 23:15	-1.1	-3.4	-1.1	75	-4.9	6	11	270	0.00	1010.671	0	0.000	0
20090208 23:20	-1.1	-1.1	-1.1	75	-4.9	5	11	270	0.00	1010.806	0	0.000	0
20090208 23:25	-1.1	-1.1	-1.1	74	-5.1	3	8	270	0.00	1010.840	0	0.000	0
20090208 23:30	-1.1	-1.1	-1.1	75	-4.9	5	8	270	0.00	1010.840	0	0.000	0
20090208 23:35	-1.1	-1.1	-1.1	75	-4.9	3	6	292	0.00	1010.874	0	0.000	0
20090208 23:40	-1.1	-1.1	-1.1	75	-4.9	3	6	292	0.00	1010.874	0	0.000	0
20090208 23:45	-1.1	-1.1	-1.1	75	-4.9	2	6	315	0.00	1010.840	0	0.000	0
20090208 23:50	-1.0	-1.0	-1.0	74	-5.0	3	6	315	0.00	1010.806	0	0.000	0
20090208 23:55	-0.9	-0.9	-0.9	75	-4.8	2	5	292	0.00	1010.772	0	0.000	0
20090208 24:00	-0.9	-0.9	-0.9	75	-4.8	2	5	292	0.00	1010.874	0	0.020	0



Please note the license to use and transfer of this data:
http://creativecommons.org/licenses/by-nc-sa/3.0/deed.en

Bitte beachten sie die Lizenz zur Verwertung und Weitergabe der Daten:
http://creativecommons.org/licenses/by-nc-sa/3.0/deed.de

zurück zur Übersicht der Archivdaten (Monats und Tagesdaten)

Cookies helfen bei der Bereitstellung von Inhalten. Durch die Nutzung dieser Seiten erklärst du dich damit einverstanden, dass Cookies auf deinem Rechner gespeichert werden. Weitere Information